Main page
METAR-TAF:

METAR-TAF

Airports :

Buffalo Narrows Airport

Buffalo Narrows, Manitoba, Canada

latitude: 55-50N, longitude: 108-27W, elevation: 434 m

Current weather observation

The report was made 26 minutes ago, at 02:00 UTC
Wind 5 kt from the North/Northwest
Temperature -25°C
Humidity 83%
Pressure 1019 hPa
Visibility: 14.5 km
Clear sky

METAR: CYVT 080200Z AUTO 34005KT 9SM CLR M25/M27 A3008 RMK SLP236

Time: 20:26 (02:26 UTC)

Forecast

The report was made 1 hour and 48 minutes ago, at 00:38 UTC
Forecast valid from 08 at 01 UTC to 08 at 04 UTC
Wind 6 kt from the North/Northwest
Visibility: 10 km
Clear sky

TAF: CYVT 080038Z 0801/0804 34006KT P6SM SKC RMK FCST BASED ON AUTO OBS. NXT FCST WILL BE ISSUED AT 081345Z

Weather observations and forecasts of more than 4000 airports (METAR and TAF reports).

The available stations are represented by yellow and red dots on the map.

Hover mouse over dot to see the name of the station.

Then click to see weather observations and forecasts.

To change the map : click on the green buttons with a black cross to zoom in, on the green button with a dash to zoom out, or on the green arrows for adjacent maps.


METAR-TAF: